createdAt,value
2023-04-13T00:01:23.752Z,10.49
2023-04-13T00:03:52.321Z,10.56
2023-04-13T00:06:22.794Z,10.60
2023-04-13T00:08:54.855Z,10.56
2023-04-13T00:11:23.040Z,10.55
2023-04-13T00:13:50.837Z,10.54
2023-04-13T00:16:18.845Z,10.56
2023-04-13T00:18:46.685Z,10.46
2023-04-13T00:21:17.318Z,10.40
2023-04-13T00:23:46.639Z,10.33
2023-04-13T00:26:14.491Z,10.25
2023-04-13T00:28:45.530Z,10.17
2023-04-13T00:31:13.404Z,10.17
2023-04-13T00:33:41.564Z,10.16
2023-04-13T00:36:10.496Z,9.98
2023-04-13T00:38:39.212Z,9.79
2023-04-13T00:41:08.598Z,9.77
2023-04-13T00:43:36.760Z,9.71
2023-04-13T00:46:05.335Z,9.55
2023-04-13T00:48:36.316Z,9.48
2023-04-13T00:51:05.844Z,9.61
2023-04-13T00:53:34.783Z,9.71
2023-04-13T00:56:06.091Z,9.56
2023-04-13T00:58:36.043Z,9.76
2023-04-13T01:01:04.369Z,9.93
2023-04-13T01:03:34.539Z,9.82
2023-04-13T01:06:17.825Z,9.70
2023-04-13T01:08:49.115Z,9.52
2023-04-13T01:11:24.613Z,9.50
2023-04-13T01:14:02.742Z,9.56
2023-04-13T01:16:38.226Z,9.10
2023-04-13T01:19:11.976Z,8.92
2023-04-13T01:21:40.340Z,8.86
2023-04-13T01:24:22.201Z,8.89
2023-04-13T01:26:58.575Z,8.90
2023-04-13T01:29:29.885Z,9.01
2023-04-13T01:32:01.345Z,9.12
2023-04-13T01:34:29.773Z,9.17
2023-04-13T01:36:58.184Z,8.97
2023-04-13T01:39:32.046Z,9.00
2023-04-13T01:42:10.120Z,9.10
2023-04-13T01:44:40.487Z,9.02
2023-04-13T01:47:16.692Z,9.16
2023-04-13T01:50:10.264Z,9.20
2023-04-13T01:52:51.212Z,9.22
2023-04-13T01:55:19.838Z,9.35
2023-04-13T01:57:54.930Z,9.21
2023-04-13T02:00:32.054Z,9.05
2023-04-13T02:03:00.229Z,9.18
2023-04-13T02:05:28.072Z,8.97
2023-04-13T02:07:56.494Z,8.81
2023-04-13T02:10:24.341Z,8.87
2023-04-13T02:12:52.816Z,9.02
2023-04-13T02:15:21.220Z,9.15
2023-04-13T02:17:50.434Z,9.02
2023-04-13T02:20:19.043Z,9.08
2023-04-13T02:22:46.922Z,9.12
2023-04-13T02:25:17.299Z,8.97
2023-04-13T02:27:45.427Z,9.02
2023-04-13T02:30:13.863Z,9.21
2023-04-13T02:32:42.706Z,9.21
2023-04-13T02:35:12.087Z,9.20
2023-04-13T02:37:40.996Z,9.21
2023-04-13T02:40:13.224Z,9.05
2023-04-13T02:42:41.665Z,9.00
2023-04-13T02:45:12.120Z,8.99
2023-04-13T02:47:40.277Z,9.14
2023-04-13T02:50:09.599Z,8.99
2023-04-13T02:52:45.206Z,8.98
2023-04-13T02:55:13.435Z,8.81
2023-04-13T02:57:51.468Z,8.76
2023-04-13T03:00:20.496Z,8.65
2023-04-13T03:02:55.709Z,8.87
2023-04-13T03:05:26.443Z,9.01
2023-04-13T03:07:56.983Z,8.97
2023-04-13T03:10:25.856Z,9.13
2023-04-13T03:12:55.513Z,9.10
2023-04-13T03:15:23.684Z,9.01
2023-04-13T03:17:51.603Z,8.83
2023-04-13T03:20:23.900Z,8.88
2023-04-13T03:23:01.760Z,8.76
2023-04-13T03:25:34.104Z,8.86
2023-04-13T03:28:03.621Z,8.55
2023-04-13T03:30:37.490Z,8.68
2023-04-13T03:33:05.766Z,8.85
2023-04-13T03:35:37.240Z,8.65
2023-04-13T03:38:09.417Z,8.66
2023-04-13T03:40:39.775Z,8.67
2023-04-13T03:43:07.536Z,8.50
2023-04-13T03:45:39.672Z,8.47
2023-04-13T03:48:11.125Z,8.36
2023-04-13T03:50:39.256Z,8.26
2023-04-13T03:53:10.405Z,8.52
2023-04-13T03:55:38.722Z,8.40
2023-04-13T03:58:08.534Z,8.27
2023-04-13T04:00:36.958Z,8.15
2023-04-13T04:03:27.692Z,8.43
2023-04-13T04:05:58.867Z,8.52
2023-04-13T04:08:30.471Z,8.60
2023-04-13T04:11:02.551Z,8.63
2023-04-13T04:13:31.489Z,8.48
2023-04-13T04:16:03.659Z,8.33
2023-04-13T04:18:34.146Z,8.33
2023-04-13T04:21:03.859Z,8.42
2023-04-13T04:23:34.702Z,8.49
2023-04-13T04:26:05.877Z,8.59
2023-04-13T04:28:42.438Z,8.44
2023-04-13T04:31:15.056Z,8.46
2023-04-13T04:33:47.075Z,8.41
2023-04-13T04:36:17.023Z,8.21
2023-04-13T04:38:58.144Z,8.32
2023-04-13T04:41:27.167Z,8.37
2023-04-13T04:44:02.752Z,8.52
2023-04-13T04:46:38.491Z,8.60
2023-04-13T04:49:10.223Z,8.45
2023-04-13T04:51:39.240Z,8.56
2023-04-13T04:54:09.291Z,8.67
2023-04-13T04:56:37.606Z,8.57
2023-04-13T04:59:06.689Z,8.48
2023-04-13T05:01:47.172Z,8.48
2023-04-13T05:04:15.174Z,8.56
2023-04-13T05:06:44.790Z,8.31
2023-04-13T05:09:19.765Z,8.38
2023-04-13T05:11:51.925Z,8.47
2023-04-13T05:14:21.514Z,8.36
2023-04-13T05:16:49.807Z,8.26
2023-04-13T05:19:25.153Z,8.30
2023-04-13T05:21:57.197Z,8.47
2023-04-13T05:24:27.202Z,8.42
2023-04-13T05:26:59.753Z,8.46
2023-04-13T05:29:27.956Z,8.23
2023-04-13T05:31:55.790Z,8.26
2023-04-13T05:34:24.204Z,8.34
2023-04-13T05:37:05.342Z,8.41
2023-04-13T05:39:34.811Z,8.47
2023-04-13T05:42:03.085Z,8.50
2023-04-13T05:44:34.469Z,8.60
2023-04-13T05:47:02.800Z,8.26
2023-04-13T05:49:33.602Z,8.38
2023-04-13T05:52:01.812Z,8.65
2023-04-13T05:54:41.643Z,8.41
2023-04-13T05:57:09.497Z,8.59
2023-04-13T05:59:42.033Z,8.55
2023-04-13T06:02:10.794Z,8.68
2023-04-13T06:04:38.967Z,8.71
2023-04-13T06:07:07.238Z,8.66
2023-04-13T06:09:35.007Z,8.63
2023-04-13T06:12:04.591Z,8.65
2023-04-13T06:14:32.556Z,8.67
2023-04-13T06:17:00.678Z,8.61
2023-04-13T06:19:29.243Z,8.61
2023-04-13T06:21:58.525Z,8.73
2023-04-13T06:24:27.270Z,8.30
2023-04-13T06:26:57.027Z,8.43
2023-04-13T06:29:26.630Z,8.57
2023-04-13T06:32:02.635Z,8.55
2023-04-13T06:34:31.311Z,8.44
2023-04-13T06:36:59.390Z,8.52
2023-04-13T06:39:29.052Z,8.60
2023-04-13T06:42:01.422Z,8.67
2023-04-13T06:45:03.837Z,8.51
2023-04-13T06:47:41.878Z,8.58
2023-04-13T06:50:15.531Z,8.48
2023-04-13T06:52:45.192Z,8.51
2023-04-13T06:55:13.469Z,8.49
2023-04-13T06:57:42.592Z,8.48
2023-04-13T07:00:26.485Z,8.66
2023-04-13T07:02:56.849Z,8.75
2023-04-13T07:05:24.803Z,8.47
2023-04-13T07:07:55.274Z,8.50
2023-04-13T07:10:24.540Z,8.65
2023-04-13T07:12:54.421Z,8.82
2023-04-13T07:15:26.849Z,8.63
2023-04-13T07:17:55.999Z,8.60
2023-04-13T07:20:24.077Z,8.72
2023-04-13T07:22:52.260Z,8.70
2023-04-13T07:25:21.807Z,8.84
2023-04-13T07:27:50.221Z,8.79
2023-04-13T07:30:18.463Z,8.63
2023-04-13T07:32:49.632Z,9.01
2023-04-13T07:35:17.818Z,9.10
2023-04-13T07:37:50.734Z,9.37
2023-04-13T07:40:20.911Z,9.27
2023-04-13T07:42:51.995Z,9.20
2023-04-13T07:45:21.200Z,9.28
2023-04-13T07:47:52.708Z,9.15
2023-04-13T07:50:20.647Z,9.28
2023-04-13T07:52:48.695Z,9.41
2023-04-13T07:55:21.100Z,9.50
2023-04-13T07:57:50.100Z,9.39
2023-04-13T08:00:20.657Z,9.50
2023-04-13T08:02:55.689Z,9.45
2023-04-13T08:05:25.275Z,9.33
2023-04-13T08:07:53.668Z,9.53
2023-04-13T08:10:21.522Z,9.49
2023-04-13T08:12:49.580Z,9.51
2023-04-13T08:15:19.966Z,9.55
2023-04-13T08:17:48.150Z,9.48
2023-04-13T08:20:21.265Z,9.42
2023-04-13T08:22:52.262Z,9.51
2023-04-13T08:25:21.889Z,9.41
2023-04-13T08:27:49.685Z,9.51
2023-04-13T08:30:17.845Z,9.21
2023-04-13T08:32:54.858Z,9.22
2023-04-13T08:35:25.894Z,9.24
2023-04-13T08:37:53.987Z,9.28
2023-04-13T08:40:22.773Z,9.24
2023-04-13T08:42:55.613Z,9.36
2023-04-13T08:45:24.064Z,9.33
2023-04-13T08:47:52.991Z,9.33
2023-04-13T08:50:26.951Z,9.44
2023-04-13T08:52:56.567Z,9.38
2023-04-13T08:55:26.580Z,9.45
2023-04-13T08:57:59.496Z,9.65
2023-04-13T09:00:28.387Z,9.31
2023-04-13T09:03:07.051Z,9.10
2023-04-13T09:05:43.497Z,9.26
2023-04-13T09:08:13.747Z,9.27
2023-04-13T09:10:45.133Z,9.54
2023-04-13T09:13:13.341Z,9.78
2023-04-13T09:15:43.104Z,9.73
2023-04-13T09:18:26.063Z,9.40
2023-04-13T09:21:02.290Z,9.50
2023-04-13T09:23:30.292Z,9.54
2023-04-13T09:26:09.049Z,9.48
2023-04-13T09:28:47.747Z,9.29
2023-04-13T09:31:16.394Z,9.48
2023-04-13T09:33:48.751Z,9.74
2023-04-13T09:36:19.705Z,9.67
2023-04-13T09:38:52.543Z,9.65
2023-04-13T09:41:29.840Z,9.66
2023-04-13T09:43:58.575Z,9.63
2023-04-13T09:46:26.413Z,9.65
2023-04-13T09:49:02.847Z,9.30
2023-04-13T09:51:39.516Z,9.02
2023-04-13T09:54:08.136Z,8.88
2023-04-13T09:56:52.540Z,8.83
2023-04-13T09:59:20.436Z,8.87
2023-04-13T10:01:49.286Z,8.79
2023-04-13T10:04:17.441Z,8.80
2023-04-13T10:06:46.941Z,8.70
2023-04-13T10:09:15.454Z,8.50
2023-04-13T10:11:46.685Z,8.49
2023-04-13T10:14:17.818Z,8.52
2023-04-13T10:17:08.301Z,8.80
2023-04-13T10:19:43.259Z,8.99
2023-04-13T10:22:13.032Z,8.86
2023-04-13T10:24:41.591Z,9.11
2023-04-13T10:27:15.006Z,9.30
2023-04-13T10:29:44.936Z,9.40
2023-04-13T10:32:22.645Z,9.71
2023-04-13T10:34:52.874Z,9.83
2023-04-13T10:37:24.113Z,9.54
2023-04-13T10:40:05.535Z,9.65
2023-04-13T10:42:51.714Z,9.66
2023-04-13T10:45:24.032Z,9.62
2023-04-13T10:47:53.416Z,9.59
2023-04-13T10:50:22.988Z,10.02
2023-04-13T10:53:00.107Z,10.11
2023-04-13T10:55:28.955Z,9.98
2023-04-13T10:57:57.675Z,10.23
2023-04-13T11:00:38.367Z,10.38
2023-04-13T11:03:15.323Z,9.95
2023-04-13T11:05:44.873Z,9.97
2023-04-13T11:08:20.535Z,9.64
2023-04-13T11:10:52.630Z,9.65
2023-04-13T11:13:20.818Z,9.63
2023-04-13T11:15:50.591Z,9.75
2023-04-13T11:18:27.157Z,9.33
2023-04-13T11:20:55.910Z,9.23
2023-04-13T11:23:25.581Z,9.18
2023-04-13T11:25:55.147Z,9.62
2023-04-13T11:28:23.817Z,9.82
2023-04-13T11:30:56.700Z,9.86
2023-04-13T11:33:25.841Z,9.66
2023-04-13T11:35:55.490Z,9.87
2023-04-13T11:38:23.661Z,9.82
2023-04-13T11:41:07.937Z,9.92
2023-04-13T11:43:41.926Z,10.13
2023-04-13T11:46:12.764Z,10.22
2023-04-13T11:48:41.390Z,10.39
2023-04-13T11:51:11.102Z,10.51
2023-04-13T11:53:39.669Z,10.37
2023-04-13T11:56:09.631Z,10.39
2023-04-13T11:58:39.452Z,10.38
2023-04-13T12:03:56.946Z,10.29
2023-04-13T12:06:29.053Z,10.44
2023-04-13T12:09:09.081Z,10.31
2023-04-13T12:11:43.942Z,10.39
2023-04-13T12:14:49.268Z,10.64
2023-04-13T12:19:46.544Z,10.98
2023-04-13T12:22:15.232Z,10.92
2023-04-13T12:24:43.195Z,10.82
2023-04-13T12:29:43.432Z,10.77
2023-04-13T12:32:14.285Z,10.64
2023-04-13T12:34:43.017Z,10.90
2023-04-13T12:37:11.843Z,11.03
2023-04-13T12:39:39.847Z,11.02
2023-04-13T12:42:09.102Z,10.77
2023-04-13T12:44:38.763Z,10.85
2023-04-13T12:47:06.960Z,10.68
2023-04-13T12:49:34.955Z,10.80
2023-04-13T12:52:02.754Z,10.49
2023-04-13T12:54:30.943Z,10.61
2023-04-13T12:56:59.727Z,10.48
2023-04-13T12:59:27.644Z,10.49
2023-04-13T13:01:58.705Z,10.55
2023-04-13T13:04:30.061Z,10.55
2023-04-13T13:06:58.107Z,10.51
2023-04-13T13:09:25.915Z,10.41
2023-04-13T13:11:53.861Z,10.67
2023-04-13T13:14:21.846Z,10.80
2023-04-13T13:16:50.568Z,11.01
2023-04-13T13:19:19.873Z,10.80
2023-04-13T13:21:47.807Z,10.74
2023-04-13T13:24:15.876Z,10.86
2023-04-13T13:27:10.151Z,10.81
2023-04-13T13:29:33.454Z,10.81
2023-04-13T13:32:01.386Z,10.58
2023-04-13T13:34:30.703Z,10.76
2023-04-13T13:36:59.054Z,10.79
2023-04-13T13:39:27.345Z,10.56
2023-04-13T13:41:55.255Z,10.71
2023-04-13T13:44:23.315Z,10.85
2023-04-13T13:46:51.130Z,11.02
2023-04-13T13:49:21.448Z,10.88
2023-04-13T13:52:09.570Z,11.07
2023-04-13T13:54:45.935Z,10.79
2023-04-13T13:57:13.845Z,10.93
2023-04-13T13:59:41.794Z,11.00
2023-04-13T14:02:10.024Z,10.95
2023-04-13T14:04:38.453Z,10.79
2023-04-13T14:07:06.599Z,10.97
2023-04-13T14:09:36.116Z,11.10
2023-04-13T14:12:05.246Z,11.10
2023-04-13T14:14:33.261Z,11.08
2023-04-13T14:17:01.155Z,10.89
2023-04-13T14:19:28.961Z,10.97
2023-04-13T14:21:57.411Z,11.04
2023-04-13T14:24:26.494Z,11.10
2023-04-13T14:26:55.982Z,11.05
2023-04-13T14:29:23.866Z,10.96
2023-04-13T14:31:52.566Z,10.92
2023-04-13T14:34:20.615Z,11.22
2023-04-13T14:36:51.141Z,11.14
2023-04-13T14:39:21.024Z,11.18
2023-04-13T14:41:49.189Z,11.14
2023-04-13T14:44:18.425Z,11.18
2023-04-13T14:46:46.813Z,11.12
2023-04-13T14:49:17.800Z,11.08
2023-04-13T14:51:45.749Z,11.21
2023-04-13T14:54:14.015Z,11.28
2023-04-13T14:56:41.768Z,11.28
2023-04-13T14:59:09.821Z,11.30
2023-04-13T15:01:39.975Z,11.24
2023-04-13T15:04:08.221Z,11.30
2023-04-13T15:06:37.111Z,11.47
2023-04-13T15:09:06.573Z,11.55
2023-04-13T15:11:34.601Z,11.41
2023-04-13T15:14:02.584Z,11.11
2023-04-13T15:16:30.718Z,11.09
2023-04-13T15:19:00.709Z,10.96
2023-04-13T15:21:28.854Z,11.15
2023-04-13T15:23:56.824Z,11.24
2023-04-13T15:26:25.045Z,11.23
2023-04-13T15:28:52.857Z,11.39
2023-04-13T15:31:22.848Z,11.31
2023-04-13T15:33:51.774Z,11.36
2023-04-13T15:36:21.392Z,11.25
2023-04-13T15:38:49.453Z,11.24
2023-04-13T15:41:20.064Z,11.23
2023-04-13T15:43:48.187Z,11.43
2023-04-13T15:46:17.746Z,11.36
2023-04-13T15:48:46.744Z,11.21
2023-04-13T15:51:14.532Z,11.40
2023-04-13T15:53:43.843Z,11.43
2023-04-13T15:56:11.870Z,11.50
2023-04-13T15:58:40.054Z,11.60
2023-04-13T16:01:10.117Z,11.69
2023-04-13T16:03:39.453Z,11.75
2023-04-13T16:06:08.682Z,11.79
2023-04-13T16:08:37.365Z,11.78
2023-04-13T16:11:07.830Z,11.57
2023-04-13T16:13:48.618Z,11.65
2023-04-13T16:16:18.601Z,11.54
2023-04-13T16:18:46.506Z,11.33
2023-04-13T16:21:19.106Z,11.43
2023-04-13T16:23:47.541Z,11.50
2023-04-13T16:26:16.767Z,11.43
2023-04-13T16:28:44.478Z,11.60
2023-04-13T16:31:12.500Z,11.42
2023-04-13T16:33:41.438Z,11.46
2023-04-13T16:36:10.324Z,11.57
2023-04-13T16:38:40.309Z,11.79
2023-04-13T16:41:08.236Z,11.58
2023-04-13T16:43:37.662Z,11.82
2023-04-13T16:46:06.600Z,12.00
2023-04-13T16:48:34.569Z,12.08
2023-04-13T16:51:03.632Z,11.90
2023-04-13T16:53:31.836Z,11.96
2023-04-13T16:56:00.008Z,12.02
2023-04-13T16:58:27.875Z,11.81
2023-04-13T17:00:57.509Z,11.88
2023-04-13T17:03:26.338Z,11.94
2023-04-13T17:05:55.635Z,11.92
2023-04-13T17:08:23.676Z,11.85
2023-04-13T17:10:52.557Z,11.99
2023-04-13T17:13:20.807Z,11.85
2023-04-13T17:15:49.201Z,11.81
2023-04-13T17:18:18.481Z,11.82
2023-04-13T17:20:54.948Z,11.98
2023-04-13T17:23:23.622Z,12.02
2023-04-13T17:25:54.280Z,11.90
2023-04-13T17:28:23.600Z,11.90
2023-04-13T17:30:59.364Z,12.03
2023-04-13T17:33:31.505Z,12.17
2023-04-13T17:36:02.417Z,12.23
2023-04-13T17:38:30.553Z,11.92
2023-04-13T17:40:58.673Z,12.01
2023-04-13T17:43:26.647Z,11.79
2023-04-13T17:45:54.623Z,11.98
2023-04-13T17:48:22.439Z,11.92
2023-04-13T17:50:52.337Z,11.83
2023-04-13T17:53:20.325Z,11.99
2023-04-13T17:55:48.510Z,12.09
2023-04-13T17:58:16.729Z,11.88
2023-04-13T18:00:44.897Z,11.86
2023-04-13T18:03:14.118Z,11.81
2023-04-13T18:05:45.457Z,11.88
2023-04-13T18:08:14.790Z,11.71
2023-04-13T18:10:43.196Z,11.84
2023-04-13T18:13:11.280Z,11.83
2023-04-13T18:15:39.382Z,11.67
2023-04-13T18:18:07.723Z,11.80
2023-04-13T18:20:36.090Z,11.76
2023-04-13T18:23:04.653Z,11.73
2023-04-13T18:25:33.995Z,11.66
2023-04-13T18:28:01.749Z,11.61
2023-04-13T18:30:29.590Z,11.64
2023-04-13T18:32:57.787Z,11.71
2023-04-13T18:35:26.455Z,11.67
2023-04-13T18:37:54.523Z,11.85
2023-04-13T18:40:22.545Z,11.79
2023-04-13T18:42:51.741Z,11.81
2023-04-13T18:45:19.991Z,11.72
2023-04-13T18:47:48.129Z,11.65
2023-04-13T18:50:16.503Z,11.63
2023-04-13T18:52:44.454Z,11.56
2023-04-13T18:55:12.575Z,11.74
2023-04-13T18:57:41.793Z,11.79
2023-04-13T19:00:13.507Z,11.72
2023-04-13T19:02:42.374Z,11.67
2023-04-13T19:05:13.383Z,11.76
2023-04-13T19:07:42.345Z,11.70
2023-04-13T19:10:11.228Z,11.60
2023-04-13T19:12:39.242Z,11.65
2023-04-13T19:15:08.131Z,11.59
2023-04-13T19:17:37.939Z,11.56
2023-04-13T19:20:10.417Z,11.54
2023-04-13T19:22:39.578Z,11.49
2023-04-13T19:25:14.280Z,11.21
2023-04-13T19:27:44.544Z,11.31
2023-04-13T19:30:14.574Z,11.31
2023-04-13T19:32:46.837Z,11.36
2023-04-13T19:35:16.739Z,11.43
2023-04-13T19:37:45.627Z,11.41
2023-04-13T19:40:15.353Z,11.38
2023-04-13T19:42:45.769Z,11.44
2023-04-13T19:45:15.854Z,11.43
2023-04-13T19:47:47.550Z,11.41
2023-04-13T19:50:16.689Z,11.33
2023-04-13T19:52:47.185Z,11.44
2023-04-13T19:55:16.447Z,11.31
2023-04-13T19:57:44.631Z,11.22
2023-04-13T20:00:22.407Z,11.19
2023-04-13T20:02:53.016Z,11.18
2023-04-13T20:05:22.706Z,11.18
2023-04-13T20:07:50.723Z,11.16
2023-04-13T20:10:19.544Z,11.24
2023-04-13T20:12:47.910Z,11.21
2023-04-13T20:15:16.289Z,11.20
2023-04-13T20:17:44.732Z,11.26
2023-04-13T20:20:14.529Z,10.98
2023-04-13T20:22:43.613Z,11.03
2023-04-13T20:25:11.708Z,11.04
2023-04-13T20:27:41.736Z,10.95
2023-04-13T20:30:11.088Z,11.01
2023-04-13T20:32:39.679Z,11.02
2023-04-13T20:35:09.581Z,11.13
2023-04-13T20:37:39.153Z,11.19
2023-04-13T20:40:10.903Z,11.14
2023-04-13T20:42:41.742Z,11.23
2023-04-13T20:45:10.982Z,11.29
2023-04-13T20:47:42.335Z,11.25
2023-04-13T20:50:11.183Z,11.38
2023-04-13T20:52:42.693Z,11.30
2023-04-13T20:55:12.064Z,11.42
2023-04-13T20:57:42.151Z,11.32
2023-04-13T21:00:15.324Z,11.27
2023-04-13T21:02:44.396Z,11.36
2023-04-13T21:05:12.624Z,11.13
2023-04-13T21:07:42.081Z,11.03
2023-04-13T21:10:12.123Z,11.13
2023-04-13T21:12:39.885Z,10.97
2023-04-13T21:15:09.426Z,10.90
2023-04-13T21:17:37.477Z,10.98
2023-04-13T21:20:08.699Z,10.96
2023-04-13T21:22:36.711Z,11.00
2023-04-13T21:25:07.032Z,10.87
2023-04-13T21:27:34.914Z,10.85
2023-04-13T21:30:03.352Z,10.82
2023-04-13T21:32:31.243Z,10.99
2023-04-13T21:35:00.450Z,10.93
2023-04-13T21:37:29.659Z,10.97
2023-04-13T21:39:57.796Z,10.84
2023-04-13T21:42:27.254Z,10.87
2023-04-13T21:44:56.849Z,10.88
2023-04-13T21:47:25.314Z,11.00
2023-04-13T21:49:53.292Z,11.00
2023-04-13T21:52:21.297Z,10.92
2023-04-13T21:54:51.020Z,10.66
2023-04-13T21:57:20.068Z,10.61
2023-04-13T21:59:49.657Z,10.74
2023-04-13T22:02:17.916Z,10.74
2023-04-13T22:04:45.895Z,10.82
2023-04-13T22:07:15.876Z,10.89
2023-04-13T22:09:43.717Z,10.79
2023-04-13T22:12:12.049Z,10.74
2023-04-13T22:14:40.489Z,10.79
2023-04-13T22:17:10.300Z,10.79
2023-04-13T22:19:38.214Z,10.88
2023-04-13T22:22:05.999Z,10.74
2023-04-13T22:24:33.950Z,10.74
2023-04-13T22:27:03.664Z,10.76
2023-04-13T22:29:32.014Z,10.74
2023-04-13T22:31:59.925Z,10.61
2023-04-13T22:34:29.116Z,10.62
2023-04-13T22:36:58.737Z,10.64
2023-04-13T22:39:26.707Z,10.57
2023-04-13T22:41:54.508Z,10.55
2023-04-13T22:44:22.520Z,10.56
2023-04-13T22:46:50.397Z,10.42
2023-04-13T22:49:18.146Z,10.43
2023-04-13T22:51:47.493Z,10.43
2023-04-13T22:54:15.533Z,10.24
2023-04-13T22:56:43.312Z,10.07
2023-04-13T22:59:11.049Z,10.10
2023-04-13T23:01:39.293Z,9.99
2023-04-13T23:04:07.160Z,10.09
2023-04-13T23:06:36.710Z,10.15
2023-04-13T23:09:06.295Z,10.16
2023-04-13T23:11:34.035Z,10.18
2023-04-13T23:14:02.068Z,10.29
2023-04-13T23:16:29.875Z,10.20
2023-04-13T23:18:58.265Z,10.25
2023-04-13T23:21:29.650Z,10.21
2023-04-13T23:23:58.135Z,10.28
2023-04-13T23:26:27.589Z,10.39
2023-04-13T23:28:56.010Z,10.48
2023-04-13T23:31:23.901Z,10.56
2023-04-13T23:33:53.440Z,10.43
2023-04-13T23:36:22.230Z,10.44
2023-04-13T23:38:51.056Z,10.42
2023-04-13T23:41:19.044Z,10.29
2023-04-13T23:43:48.331Z,10.26
2023-04-13T23:46:17.186Z,10.20
2023-04-13T23:48:45.165Z,10.09
2023-04-13T23:51:12.992Z,10.16
2023-04-13T23:53:41.307Z,10.25
2023-04-13T23:56:09.251Z,10.17
2023-04-13T23:58:37.048Z,10.25
